Página principal
METAR-TAF:

METAR-TAF

Aeroportos :

Aeroporto Internacional Jinnah

Carachi, Paquistão

latitude: 24-54N, longitude: 067-08E, altura: 21 m

Observação actual do tempo

O boletim foi feito há 1 hora e 9 minutos, às 15:55 UTC
Vento 4 kt de sudoeste
Temperatura 26°C
Humidade 32%
Pressão 1016 hPa
Visibilidade: 4000 m
bruma

METAR: OPKC 211555Z 23004KT 4000 HZ NSC 26/08 Q1016 NOSIG

Hora: 22:04 (17:04 UTC)

Previsão

O boletim foi feito há 4 horas e 34 minutos, às 12:30 UTC
Previsão válida de 21 às 15 UTC a 21 às 24 UTC
Vento 5 kt de oeste
Visibilidade: 5000 m
fumo
A partir de 21 às 1800 UTC
Vento 8 kt de nor-noroeste
Visibilidade: 3000 m
fumo

TAF: OPKC 211230Z 2115/2124 26005KT 5000 FU NSC FM211800 34008KT 3000 FU NSC

Observações e previsões do tempo de mais de 4000 aeroportos (mensagens METAR e TAF).

As estações disponíveis são os pontos amarelos e vermelhos sobre o mapa.

Mova o rato sobre o mapa para ver o nome da estação.

Depois clique no ponto para visualizar as observações e previsões meteorológicas.

Para alterar o mapa : clique nos botões verdes com uma cruz preta para aumentar o zoom; no botão verde com uma pitada de zoom; ou nas setas verdes para mapas adjacentes.


METAR-TAF: